sensor_id;sensor_type;location;lat;lon;timestamp;P1;durP1;ratioP1;P2;durP2;ratioP2
6424;SDS011;12193;42.642;23.384;2023-11-21T00:00:18;4.40;;;2.57;;
6424;SDS011;12193;42.642;23.384;2023-11-21T00:02:48;4.10;;;2.60;;
6424;SDS011;12193;42.642;23.384;2023-11-21T00:05:17;3.73;;;2.50;;
6424;SDS011;12193;42.642;23.384;2023-11-21T00:07:49;4.20;;;2.57;;
6424;SDS011;12193;42.642;23.384;2023-11-21T00:10:18;3.60;;;2.10;;
6424;SDS011;12193;42.642;23.384;2023-11-21T00:12:47;3.47;;;2.23;;
6424;SDS011;12193;42.642;23.384;2023-11-21T00:15:19;5.33;;;2.40;;
6424;SDS011;12193;42.642;23.384;2023-11-21T00:17:48;4.80;;;3.00;;
6424;SDS011;12193;42.642;23.384;2023-11-21T00:20:17;4.33;;;2.50;;
6424;SDS011;12193;42.642;23.384;2023-11-21T00:22:46;5.33;;;2.40;;
6424;SDS011;12193;42.642;23.384;2023-11-21T00:25:16;6.43;;;2.10;;
6424;SDS011;12193;42.642;23.384;2023-11-21T00:27:45;4.57;;;2.40;;
6424;SDS011;12193;42.642;23.384;2023-11-21T00:30:15;3.33;;;2.10;;
6424;SDS011;12193;42.642;23.384;2023-11-21T00:32:48;4.87;;;2.37;;
6424;SDS011;12193;42.642;23.384;2023-11-21T00:35:17;4.13;;;2.20;;
6424;SDS011;12193;42.642;23.384;2023-11-21T00:37:46;4.40;;;2.30;;
6424;SDS011;12193;42.642;23.384;2023-11-21T00:40:15;4.43;;;2.60;;
6424;SDS011;12193;42.642;23.384;2023-11-21T00:42:46;4.23;;;2.63;;
6424;SDS011;12193;42.642;23.384;2023-11-21T00:45:16;3.93;;;2.30;;
6424;SDS011;12193;42.642;23.384;2023-11-21T00:47:47;3.80;;;2.80;;
6424;SDS011;12193;42.642;23.384;2023-11-21T00:50:17;3.47;;;2.10;;
6424;SDS011;12193;42.642;23.384;2023-11-21T00:52:46;3.73;;;2.43;;
6424;SDS011;12193;42.642;23.384;2023-11-21T00:55:17;5.70;;;2.57;;
6424;SDS011;12193;42.642;23.384;2023-11-21T00:57:46;6.50;;;2.63;;
6424;SDS011;12193;42.642;23.384;2023-11-21T01:00:16;4.93;;;3.10;;
6424;SDS011;12193;42.642;23.384;2023-11-21T01:02:48;4.93;;;3.47;;
6424;SDS011;12193;42.642;23.384;2023-11-21T01:05:17;10.10;;;2.90;;
6424;SDS011;12193;42.642;23.384;2023-11-21T03:58:36;16.23;;;9.53;;
6424;SDS011;12193;42.642;23.384;2023-11-21T04:01:06;15.50;;;9.13;;
6424;SDS011;12193;42.642;23.384;2023-11-21T04:03:35;18.47;;;9.13;;
6424;SDS011;12193;42.642;23.384;2023-11-21T04:06:06;18.03;;;9.90;;
6424;SDS011;12193;42.642;23.384;2023-11-21T04:08:36;19.73;;;9.93;;
6424;SDS011;12193;42.642;23.384;2023-11-21T04:11:05;18.20;;;9.00;;
6424;SDS011;12193;42.642;23.384;2023-11-21T04:13:37;19.20;;;9.07;;
6424;SDS011;12193;42.642;23.384;2023-11-21T04:16:08;16.53;;;9.40;;
6424;SDS011;12193;42.642;23.384;2023-11-21T04:18:38;15.40;;;8.77;;
6424;SDS011;12193;42.642;23.384;2023-11-21T04:21:07;15.13;;;8.40;;
6424;SDS011;12193;42.642;23.384;2023-11-21T04:23:37;14.90;;;8.50;;
6424;SDS011;12193;42.642;23.384;2023-11-21T04:26:06;15.03;;;8.40;;
6424;SDS011;12193;42.642;23.384;2023-11-21T04:28:38;14.63;;;7.53;;
6424;SDS011;12193;42.642;23.384;2023-11-21T04:31:08;16.80;;;8.97;;
6424;SDS011;12193;42.642;23.384;2023-11-21T04:33:37;15.47;;;8.70;;
6424;SDS011;12193;42.642;23.384;2023-11-21T04:36:07;20.10;;;9.13;;
6424;SDS011;12193;42.642;23.384;2023-11-21T04:38:36;16.70;;;8.97;;
6424;SDS011;12193;42.642;23.384;2023-11-21T04:41:06;19.40;;;9.47;;
6424;SDS011;12193;42.642;23.384;2023-11-21T04:43:38;15.77;;;8.73;;
6424;SDS011;12193;42.642;23.384;2023-11-21T04:46:08;15.30;;;9.03;;
6424;SDS011;12193;42.642;23.384;2023-11-21T04:48:37;17.43;;;9.43;;
6424;SDS011;12193;42.642;23.384;2023-11-21T04:51:07;15.17;;;7.97;;
6424;SDS011;12193;42.642;23.384;2023-11-21T04:53:37;16.60;;;8.13;;
6424;SDS011;12193;42.642;23.384;2023-11-21T04:56:07;14.50;;;8.60;;
6424;SDS011;12193;42.642;23.384;2023-11-21T04:58:39;14.77;;;8.70;;
6424;SDS011;12193;42.642;23.384;2023-11-21T05:01:08;13.53;;;7.83;;
6424;SDS011;12193;42.642;23.384;2023-11-21T05:03:37;16.53;;;7.90;;
6424;SDS011;12193;42.642;23.384;2023-11-21T05:06:09;12.97;;;7.70;;
6424;SDS011;12193;42.642;23.384;2023-11-21T05:08:38;8.60;;;6.20;;
6424;SDS011;12193;42.642;23.384;2023-11-21T05:11:08;11.27;;;6.37;;
6424;SDS011;12193;42.642;23.384;2023-11-21T05:13:40;8.83;;;5.63;;
6424;SDS011;12193;42.642;23.384;2023-11-21T05:16:09;8.03;;;4.77;;
6424;SDS011;12193;42.642;23.384;2023-11-21T05:18:40;7.77;;;4.90;;
6424;SDS011;12193;42.642;23.384;2023-11-21T05:21:09;8.67;;;5.07;;
6424;SDS011;12193;42.642;23.384;2023-11-21T05:23:38;9.67;;;5.80;;
6424;SDS011;12193;42.642;23.384;2023-11-21T05:26:07;8.53;;;4.63;;
6424;SDS011;12193;42.642;23.384;2023-11-21T05:28:36;8.60;;;5.40;;
6424;SDS011;12193;42.642;23.384;2023-11-21T05:31:08;9.83;;;5.17;;
6424;SDS011;12193;42.642;23.384;2023-11-21T05:33:38;7.20;;;4.30;;
6424;SDS011;12193;42.642;23.384;2023-11-21T05:36:07;6.73;;;3.87;;
6424;SDS011;12193;42.642;23.384;2023-11-21T05:38:36;6.83;;;4.23;;
6424;SDS011;12193;42.642;23.384;2023-11-21T05:41:07;8.90;;;4.00;;
6424;SDS011;12193;42.642;23.384;2023-11-21T05:43:39;7.73;;;4.40;;
6424;SDS011;12193;42.642;23.384;2023-11-21T05:46:11;7.37;;;4.70;;
6424;SDS011;12193;42.642;23.384;2023-11-21T05:48:40;10.00;;;5.43;;
6424;SDS011;12193;42.642;23.384;2023-11-21T05:51:09;11.03;;;5.40;;
6424;SDS011;12193;42.642;23.384;2023-11-21T05:53:39;15.70;;;8.77;;
6424;SDS011;12193;42.642;23.384;2023-11-21T05:56:08;13.50;;;6.60;;
6424;SDS011;12193;42.642;23.384;2023-11-21T05:58:37;18.40;;;6.67;;
6424;SDS011;12193;42.642;23.384;2023-11-21T06:01:07;15.07;;;7.90;;
6424;SDS011;12193;42.642;23.384;2023-11-21T06:03:41;18.63;;;9.23;;
6424;SDS011;12193;42.642;23.384;2023-11-21T06:06:11;17.47;;;9.70;;
6424;SDS011;12193;42.642;23.384;2023-11-21T06:08:40;21.43;;;9.70;;
6424;SDS011;12193;42.642;23.384;2023-11-21T06:11:10;19.80;;;10.80;;
6424;SDS011;12193;42.642;23.384;2023-11-21T06:13:39;25.77;;;11.57;;
6424;SDS011;12193;42.642;23.384;2023-11-21T06:16:08;29.73;;;17.20;;
6424;SDS011;12193;42.642;23.384;2023-11-21T06:18:43;33.17;;;16.07;;
6424;SDS011;12193;42.642;23.384;2023-11-21T06:21:12;31.57;;;17.27;;
6424;SDS011;12193;42.642;23.384;2023-11-21T06:23:42;33.83;;;17.17;;
6424;SDS011;12193;42.642;23.384;2023-11-21T06:26:11;30.27;;;17.10;;
6424;SDS011;12193;42.642;23.384;2023-11-21T06:28:40;32.40;;;17.93;;
6424;SDS011;12193;42.642;23.384;2023-11-21T06:31:09;29.90;;;16.37;;
6424;SDS011;12193;42.642;23.384;2023-11-21T06:33:39;31.07;;;15.87;;
6424;SDS011;12193;42.642;23.384;2023-11-21T06:36:11;26.97;;;15.83;;
6424;SDS011;12193;42.642;23.384;2023-11-21T06:38:41;31.37;;;15.60;;
6424;SDS011;12193;42.642;23.384;2023-11-21T06:41:11;32.00;;;15.43;;
6424;SDS011;12193;42.642;23.384;2023-11-21T06:43:42;26.33;;;14.40;;
6424;SDS011;12193;42.642;23.384;2023-11-21T06:46:12;31.27;;;16.27;;
6424;SDS011;12193;42.642;23.384;2023-11-21T06:48:44;29.13;;;14.77;;
6424;SDS011;12193;42.642;23.384;2023-11-21T06:51:15;29.13;;;15.50;;
6424;SDS011;12193;42.642;23.384;2023-11-21T06:53:44;26.20;;;14.43;;
6424;SDS011;12193;42.642;23.384;2023-11-21T06:56:16;28.50;;;14.03;;
6424;SDS011;12193;42.642;23.384;2023-11-21T06:58:46;26.30;;;12.70;;
6424;SDS011;12193;42.642;23.384;2023-11-21T07:01:15;19.43;;;11.33;;
6424;SDS011;12193;42.642;23.384;2023-11-21T07:03:47;14.10;;;9.50;;
6424;SDS011;12193;42.642;23.384;2023-11-21T07:06:16;18.57;;;10.27;;
6424;SDS011;12193;42.642;23.384;2023-11-21T07:08:45;16.10;;;9.83;;
6424;SDS011;12193;42.642;23.384;2023-11-21T07:11:15;16.27;;;9.67;;
6424;SDS011;12193;42.642;23.384;2023-11-21T07:13:44;21.13;;;10.33;;
6424;SDS011;12193;42.642;23.384;2023-11-21T07:16:13;21.37;;;12.20;;
6424;SDS011;12193;42.642;23.384;2023-11-21T07:18:42;21.37;;;12.30;;
6424;SDS011;12193;42.642;23.384;2023-11-21T07:21:14;20.23;;;12.23;;
6424;SDS011;12193;42.642;23.384;2023-11-21T07:23:43;20.30;;;12.90;;
6424;SDS011;12193;42.642;23.384;2023-11-21T07:26:13;19.63;;;11.87;;
6424;SDS011;12193;42.642;23.384;2023-11-21T07:28:42;19.80;;;11.53;;
6424;SDS011;12193;42.642;23.384;2023-11-21T07:31:11;23.57;;;11.63;;
6424;SDS011;12193;42.642;23.384;2023-11-21T07:33:40;20.73;;;11.47;;
6424;SDS011;12193;42.642;23.384;2023-11-21T07:36:10;19.57;;;10.20;;
6424;SDS011;12193;42.642;23.384;2023-11-21T07:38:41;16.20;;;8.97;;
6424;SDS011;12193;42.642;23.384;2023-11-21T07:41:11;17.10;;;9.50;;
6424;SDS011;12193;42.642;23.384;2023-11-21T07:43:41;18.00;;;9.60;;
6424;SDS011;12193;42.642;23.384;2023-11-21T07:46:10;15.97;;;9.43;;
6424;SDS011;12193;42.642;23.384;2023-11-21T07:48:41;19.33;;;9.70;;
6424;SDS011;12193;42.642;23.384;2023-11-21T07:51:11;16.77;;;8.93;;
6424;SDS011;12193;42.642;23.384;2023-11-21T07:53:44;16.97;;;9.50;;
6424;SDS011;12193;42.642;23.384;2023-11-21T07:56:13;16.67;;;9.10;;
6424;SDS011;12193;42.642;23.384;2023-11-21T07:58:43;21.57;;;9.63;;
6424;SDS011;12193;42.642;23.384;2023-11-21T08:01:13;16.80;;;9.37;;
6424;SDS011;12193;42.642;23.384;2023-11-21T08:03:42;18.37;;;9.07;;
6424;SDS011;12193;42.642;23.384;2023-11-21T08:06:11;14.37;;;8.10;;
6424;SDS011;12193;42.642;23.384;2023-11-21T08:08:40;15.50;;;8.43;;
6424;SDS011;12193;42.642;23.384;2023-11-21T08:11:12;17.70;;;8.40;;
6424;SDS011;12193;42.642;23.384;2023-11-21T08:13:42;22.37;;;9.13;;
6424;SDS011;12193;42.642;23.384;2023-11-21T08:16:11;27.90;;;8.47;;
6424;SDS011;12193;42.642;23.384;2023-11-21T08:18:41;18.40;;;8.50;;
6424;SDS011;12193;42.642;23.384;2023-11-21T08:21:12;21.80;;;9.83;;
6424;SDS011;12193;42.642;23.384;2023-11-21T08:23:41;17.43;;;8.83;;
6424;SDS011;12193;42.642;23.384;2023-11-21T08:26:13;54.63;;;10.53;;
6424;SDS011;12193;42.642;23.384;2023-11-21T08:28:44;33.73;;;10.17;;
6424;SDS011;12193;42.642;23.384;2023-11-21T08:31:14;26.43;;;9.70;;
6424;SDS011;12193;42.642;23.384;2023-11-21T08:33:43;22.47;;;9.83;;
6424;SDS011;12193;42.642;23.384;2023-11-21T08:36:12;24.13;;;10.10;;
6424;SDS011;12193;42.642;23.384;2023-11-21T08:38:41;19.67;;;10.03;;
6424;SDS011;12193;42.642;23.384;2023-11-21T08:41:13;27.03;;;10.07;;
6424;SDS011;12193;42.642;23.384;2023-11-21T08:43:42;35.57;;;11.90;;
6424;SDS011;12193;42.642;23.384;2023-11-21T08:46:14;16.67;;;10.07;;
6424;SDS011;12193;42.642;23.384;2023-11-21T08:48:43;25.13;;;9.73;;
6424;SDS011;12193;42.642;23.384;2023-11-21T08:51:12;67.47;;;13.70;;
6424;SDS011;12193;42.642;23.384;2023-11-21T08:53:42;25.30;;;10.27;;
6424;SDS011;12193;42.642;23.384;2023-11-21T08:56:14;58.50;;;12.57;;
6424;SDS011;12193;42.642;23.384;2023-11-21T08:58:44;18.80;;;9.37;;
6424;SDS011;12193;42.642;23.384;2023-11-21T09:01:13;19.43;;;8.97;;
6424;SDS011;12193;42.642;23.384;2023-11-21T09:03:43;28.73;;;10.37;;
6424;SDS011;12193;42.642;23.384;2023-11-21T09:06:12;29.23;;;14.80;;
6424;SDS011;12193;42.642;23.384;2023-11-21T09:08:41;27.60;;;13.40;;
6424;SDS011;12193;42.642;23.384;2023-11-21T09:11:10;40.63;;;17.03;;
6424;SDS011;12193;42.642;23.384;2023-11-21T09:13:42;42.03;;;17.23;;
6424;SDS011;12193;42.642;23.384;2023-11-21T09:16:13;34.90;;;18.97;;
6424;SDS011;12193;42.642;23.384;2023-11-21T09:18:42;41.63;;;19.13;;
6424;SDS011;12193;42.642;23.384;2023-11-21T09:21:11;32.93;;;18.53;;
6424;SDS011;12193;42.642;23.384;2023-11-21T09:23:40;46.57;;;19.90;;
6424;SDS011;12193;42.642;23.384;2023-11-21T09:26:11;38.33;;;19.30;;
6424;SDS011;12193;42.642;23.384;2023-11-21T09:28:44;38.20;;;18.50;;
6424;SDS011;12193;42.642;23.384;2023-11-21T09:31:14;35.27;;;17.50;;
6424;SDS011;12193;42.642;23.384;2023-11-21T09:33:48;32.60;;;17.50;;
6424;SDS011;12193;42.642;23.384;2023-11-21T09:36:17;34.33;;;17.40;;
6424;SDS011;12193;42.642;23.384;2023-11-21T09:38:48;29.97;;;16.67;;
6424;SDS011;12193;42.642;23.384;2023-11-21T09:41:19;32.47;;;16.57;;
6424;SDS011;12193;42.642;23.384;2023-11-21T09:43:56;37.17;;;17.60;;
6424;SDS011;12193;42.642;23.384;2023-11-21T09:46:27;36.30;;;17.37;;
6424;SDS011;12193;42.642;23.384;2023-11-21T09:48:57;30.83;;;16.53;;
6424;SDS011;12193;42.642;23.384;2023-11-21T09:51:31;31.17;;;16.13;;
6424;SDS011;12193;42.642;23.384;2023-11-21T09:54:04;28.07;;;15.27;;
6424;SDS011;12193;42.642;23.384;2023-11-21T09:56:34;33.23;;;14.67;;
6424;SDS011;12193;42.642;23.384;2023-11-21T09:59:07;24.97;;;14.20;;
6424;SDS011;12193;42.642;23.384;2023-11-21T10:01:40;25.83;;;14.33;;
6424;SDS011;12193;42.642;23.384;2023-11-21T10:04:10;25.17;;;12.60;;
6424;SDS011;12193;42.642;23.384;2023-11-21T10:06:40;25.10;;;11.97;;
6424;SDS011;12193;42.642;23.384;2023-11-21T10:09:11;20.77;;;11.37;;
6424;SDS011;12193;42.642;23.384;2023-11-21T10:11:42;17.07;;;10.03;;
6424;SDS011;12193;42.642;23.384;2023-11-21T10:14:14;21.33;;;11.27;;
6424;SDS011;12193;42.642;23.384;2023-11-21T10:16:47;17.87;;;10.73;;
6424;SDS011;12193;42.642;23.384;2023-11-21T10:19:19;22.13;;;11.47;;
6424;SDS011;12193;42.642;23.384;2023-11-21T10:21:50;23.07;;;11.20;;
6424;SDS011;12193;42.642;23.384;2023-11-21T10:24:20;16.60;;;9.93;;
6424;SDS011;12193;42.642;23.384;2023-11-21T10:26:49;19.37;;;9.97;;
6424;SDS011;12193;42.642;23.384;2023-11-21T10:29:22;19.20;;;10.40;;
6424;SDS011;12193;42.642;23.384;2023-11-21T10:31:52;19.67;;;10.43;;
6424;SDS011;12193;42.642;23.384;2023-11-21T10:34:24;17.10;;;10.33;;
6424;SDS011;12193;42.642;23.384;2023-11-21T10:36:53;21.47;;;10.50;;
6424;SDS011;12193;42.642;23.384;2023-11-21T10:39:24;18.83;;;10.83;;
6424;SDS011;12193;42.642;23.384;2023-11-21T10:41:56;19.97;;;9.67;;
6424;SDS011;12193;42.642;23.384;2023-11-21T10:44:28;21.23;;;10.73;;
6424;SDS011;12193;42.642;23.384;2023-11-21T10:46:57;24.03;;;10.87;;
6424;SDS011;12193;42.642;23.384;2023-11-21T10:49:29;26.97;;;11.30;;
6424;SDS011;12193;42.642;23.384;2023-11-21T10:51:59;20.77;;;10.80;;
6424;SDS011;12193;42.642;23.384;2023-11-21T10:54:29;24.17;;;12.00;;
6424;SDS011;12193;42.642;23.384;2023-11-21T10:56:59;20.43;;;11.70;;
6424;SDS011;12193;42.642;23.384;2023-11-21T10:59:31;24.67;;;11.87;;
6424;SDS011;12193;42.642;23.384;2023-11-21T11:02:01;26.17;;;12.30;;
6424;SDS011;12193;42.642;23.384;2023-11-21T11:04:40;23.30;;;12.63;;
6424;SDS011;12193;42.642;23.384;2023-11-21T11:07:08;22.10;;;12.53;;
6424;SDS011;12193;42.642;23.384;2023-11-21T11:09:41;24.83;;;12.87;;
6424;SDS011;12193;42.642;23.384;2023-11-21T11:12:11;31.87;;;14.07;;
6424;SDS011;12193;42.642;23.384;2023-11-21T11:14:45;26.47;;;13.77;;
6424;SDS011;12193;42.642;23.384;2023-11-21T11:17:16;23.20;;;12.53;;
6424;SDS011;12193;42.642;23.384;2023-11-21T11:19:47;28.33;;;13.03;;
6424;SDS011;12193;42.642;23.384;2023-11-21T11:22:21;25.57;;;12.47;;
6424;SDS011;12193;42.642;23.384;2023-11-21T11:25:08;19.43;;;10.43;;
6424;SDS011;12193;42.642;23.384;2023-11-21T11:27:52;23.07;;;10.97;;
6424;SDS011;12193;42.642;23.384;2023-11-21T11:30:32;19.90;;;11.13;;
6424;SDS011;12193;42.642;23.384;2023-11-21T11:33:21;19.70;;;10.47;;
6424;SDS011;12193;42.642;23.384;2023-11-21T11:36:01;19.47;;;10.43;;
6424;SDS011;12193;42.642;23.384;2023-11-21T11:38:34;22.87;;;11.17;;
6424;SDS011;12193;42.642;23.384;2023-11-21T11:41:04;23.63;;;10.57;;
6424;SDS011;12193;42.642;23.384;2023-11-21T11:43:36;24.23;;;10.90;;
6424;SDS011;12193;42.642;23.384;2023-11-21T11:46:12;24.17;;;10.93;;
6424;SDS011;12193;42.642;23.384;2023-11-21T11:48:41;19.50;;;11.27;;
6424;SDS011;12193;42.642;23.384;2023-11-21T11:51:11;18.63;;;10.83;;
6424;SDS011;12193;42.642;23.384;2023-11-21T11:53:43;24.03;;;11.97;;
6424;SDS011;12193;42.642;23.384;2023-11-21T11:56:24;24.00;;;11.53;;
6424;SDS011;12193;42.642;23.384;2023-11-21T11:58:56;25.33;;;12.93;;
6424;SDS011;12193;42.642;23.384;2023-11-21T12:01:31;27.77;;;12.70;;
6424;SDS011;12193;42.642;23.384;2023-11-21T12:06:57;26.23;;;13.07;;
6424;SDS011;12193;42.642;23.384;2023-11-21T12:09:29;30.40;;;14.43;;
6424;SDS011;12193;42.642;23.384;2023-11-21T12:12:01;32.83;;;15.23;;
6424;SDS011;12193;42.642;23.384;2023-11-21T12:14:31;24.63;;;12.17;;
6424;SDS011;12193;42.642;23.384;2023-11-21T12:17:03;25.23;;;12.97;;
6424;SDS011;12193;42.642;23.384;2023-11-21T12:19:32;25.47;;;14.43;;
6424;SDS011;12193;42.642;23.384;2023-11-21T12:22:02;26.73;;;13.77;;
6424;SDS011;12193;42.642;23.384;2023-11-21T12:24:32;29.47;;;14.67;;
6424;SDS011;12193;42.642;23.384;2023-11-21T12:27:01;23.93;;;13.70;;
6424;SDS011;12193;42.642;23.384;2023-11-21T12:29:30;24.97;;;15.27;;
6424;SDS011;12193;42.642;23.384;2023-11-21T12:32:00;24.17;;;14.20;;
6424;SDS011;12193;42.642;23.384;2023-11-21T12:34:32;26.80;;;14.97;;
6424;SDS011;12193;42.642;23.384;2023-11-21T12:37:01;33.63;;;15.37;;
6424;SDS011;12193;42.642;23.384;2023-11-21T12:39:31;26.47;;;15.70;;
6424;SDS011;12193;42.642;23.384;2023-11-21T12:42:00;25.87;;;14.43;;
6424;SDS011;12193;42.642;23.384;2023-11-21T12:44:32;29.67;;;17.60;;
6424;SDS011;12193;42.642;23.384;2023-11-21T12:47:04;31.03;;;17.13;;
6424;SDS011;12193;42.642;23.384;2023-11-21T12:49:33;33.83;;;18.13;;
6424;SDS011;12193;42.642;23.384;2023-11-21T12:52:04;34.77;;;18.03;;
6424;SDS011;12193;42.642;23.384;2023-11-21T12:54:34;37.37;;;18.20;;
6424;SDS011;12193;42.642;23.384;2023-11-21T12:57:04;34.03;;;19.07;;
6424;SDS011;12193;42.642;23.384;2023-11-21T12:59:34;38.97;;;19.07;;
6424;SDS011;12193;42.642;23.384;2023-11-21T13:02:07;43.33;;;19.43;;
6424;SDS011;12193;42.642;23.384;2023-11-21T13:04:38;39.07;;;20.27;;
6424;SDS011;12193;42.642;23.384;2023-11-21T13:07:07;40.83;;;20.90;;
6424;SDS011;12193;42.642;23.384;2023-11-21T13:09:40;36.23;;;20.40;;
6424;SDS011;12193;42.642;23.384;2023-11-21T13:12:09;38.10;;;21.23;;
6424;SDS011;12193;42.642;23.384;2023-11-21T13:14:39;39.87;;;21.50;;
6424;SDS011;12193;42.642;23.384;2023-11-21T13:17:11;40.03;;;21.87;;
6424;SDS011;12193;42.642;23.384;2023-11-21T13:19:41;39.77;;;21.33;;
6424;SDS011;12193;42.642;23.384;2023-11-21T13:22:10;41.33;;;21.67;;
6424;SDS011;12193;42.642;23.384;2023-11-21T13:24:39;40.47;;;22.00;;
6424;SDS011;12193;42.642;23.384;2023-11-21T13:27:08;38.87;;;22.63;;
6424;SDS011;12193;42.642;23.384;2023-11-21T13:29:37;38.50;;;21.07;;
6424;SDS011;12193;42.642;23.384;2023-11-21T13:32:07;39.57;;;21.73;;
6424;SDS011;12193;42.642;23.384;2023-11-21T13:34:40;42.27;;;22.43;;
6424;SDS011;12193;42.642;23.384;2023-11-21T13:37:10;38.57;;;21.30;;
6424;SDS011;12193;42.642;23.384;2023-11-21T13:39:40;37.70;;;21.23;;
6424;SDS011;12193;42.642;23.384;2023-11-21T13:42:11;42.03;;;22.17;;
6424;SDS011;12193;42.642;23.384;2023-11-21T13:44:42;39.73;;;22.50;;
6424;SDS011;12193;42.642;23.384;2023-11-21T13:47:13;44.57;;;21.97;;
6424;SDS011;12193;42.642;23.384;2023-11-21T13:49:45;41.20;;;21.03;;
6424;SDS011;12193;42.642;23.384;2023-11-21T13:52:15;45.00;;;22.00;;
6424;SDS011;12193;42.642;23.384;2023-11-21T13:54:48;39.77;;;22.30;;
6424;SDS011;12193;42.642;23.384;2023-11-21T13:57:17;43.63;;;21.87;;
6424;SDS011;12193;42.642;23.384;2023-11-21T13:59:47;37.40;;;21.13;;
6424;SDS011;12193;42.642;23.384;2023-11-21T14:02:17;42.30;;;22.40;;
6424;SDS011;12193;42.642;23.384;2023-11-21T14:04:56;43.10;;;22.57;;
6424;SDS011;12193;42.642;23.384;2023-11-21T14:07:27;44.23;;;22.57;;
6424;SDS011;12193;42.642;23.384;2023-11-21T14:10:01;41.50;;;21.53;;
6424;SDS011;12193;42.642;23.384;2023-11-21T14:12:33;40.00;;;22.53;;
6424;SDS011;12193;42.642;23.384;2023-11-21T14:15:05;47.63;;;25.23;;
6424;SDS011;12193;42.642;23.384;2023-11-21T14:17:36;50.83;;;24.70;;
6424;SDS011;12193;42.642;23.384;2023-11-21T14:20:09;43.03;;;23.73;;
6424;SDS011;12193;42.642;23.384;2023-11-21T14:22:41;48.10;;;25.93;;
6424;SDS011;12193;42.642;23.384;2023-11-21T14:25:11;45.90;;;26.23;;
6424;SDS011;12193;42.642;23.384;2023-11-21T14:27:40;49.90;;;27.90;;
6424;SDS011;12193;42.642;23.384;2023-11-21T14:30:10;50.97;;;28.53;;
6424;SDS011;12193;42.642;23.384;2023-11-21T14:32:44;53.00;;;27.10;;
6424;SDS011;12193;42.642;23.384;2023-11-21T14:35:15;43.20;;;24.87;;
6424;SDS011;12193;42.642;23.384;2023-11-21T14:37:45;45.80;;;24.77;;
6424;SDS011;12193;42.642;23.384;2023-11-21T14:40:15;44.73;;;23.33;;
6424;SDS011;12193;42.642;23.384;2023-11-21T14:42:47;46.63;;;24.93;;
6424;SDS011;12193;42.642;23.384;2023-11-21T14:45:18;44.97;;;22.73;;
6424;SDS011;12193;42.642;23.384;2023-11-21T14:47:51;46.70;;;23.60;;
6424;SDS011;12193;42.642;23.384;2023-11-21T14:50:35;46.20;;;23.77;;
6424;SDS011;12193;42.642;23.384;2023-11-21T14:53:19;44.37;;;23.77;;
6424;SDS011;12193;42.642;23.384;2023-11-21T14:56:09;49.90;;;24.03;;
6424;SDS011;12193;42.642;23.384;2023-11-21T14:58:47;48.63;;;23.73;;
6424;SDS011;12193;42.642;23.384;2023-11-21T15:01:13;43.80;;;23.50;;
6424;SDS011;12193;42.642;23.384;2023-11-21T15:03:52;44.40;;;23.30;;
6424;SDS011;12193;42.642;23.384;2023-11-21T15:06:23;43.43;;;24.67;;
6424;SDS011;12193;42.642;23.384;2023-11-21T15:08:56;42.27;;;23.23;;
6424;SDS011;12193;42.642;23.384;2023-11-21T15:11:38;45.67;;;23.87;;
6424;SDS011;12193;42.642;23.384;2023-11-21T15:14:08;43.53;;;24.13;;
6424;SDS011;12193;42.642;23.384;2023-11-21T15:16:41;53.13;;;24.00;;
6424;SDS011;12193;42.642;23.384;2023-11-21T15:19:15;51.50;;;23.80;;
6424;SDS011;12193;42.642;23.384;2023-11-21T15:21:53;52.67;;;25.00;;
6424;SDS011;12193;42.642;23.384;2023-11-21T15:24:23;43.73;;;25.20;;
6424;SDS011;12193;42.642;23.384;2023-11-21T15:26:53;54.63;;;25.37;;
6424;SDS011;12193;42.642;23.384;2023-11-21T15:29:22;51.30;;;24.83;;
6424;SDS011;12193;42.642;23.384;2023-11-21T15:31:52;51.93;;;26.13;;
6424;SDS011;12193;42.642;23.384;2023-11-21T15:34:22;58.87;;;27.30;;
6424;SDS011;12193;42.642;23.384;2023-11-21T15:36:55;57.00;;;26.17;;
6424;SDS011;12193;42.642;23.384;2023-11-21T15:39:24;43.60;;;24.33;;
6424;SDS011;12193;42.642;23.384;2023-11-21T15:41:56;46.00;;;24.43;;
6424;SDS011;12193;42.642;23.384;2023-11-21T15:44:25;47.43;;;23.73;;
6424;SDS011;12193;42.642;23.384;2023-11-21T15:46:56;41.33;;;24.27;;
6424;SDS011;12193;42.642;23.384;2023-11-21T15:49:25;47.57;;;23.93;;
6424;SDS011;12193;42.642;23.384;2023-11-21T15:51:58;49.17;;;26.03;;
6424;SDS011;12193;42.642;23.384;2023-11-21T15:54:28;59.57;;;31.37;;
6424;SDS011;12193;42.642;23.384;2023-11-21T15:57:00;63.63;;;29.17;;
6424;SDS011;12193;42.642;23.384;2023-11-21T15:59:29;68.27;;;33.77;;
6424;SDS011;12193;42.642;23.384;2023-11-21T16:01:57;78.13;;;36.03;;
6424;SDS011;12193;42.642;23.384;2023-11-21T16:04:26;74.90;;;35.60;;
6424;SDS011;12193;42.642;23.384;2023-11-21T16:06:58;71.37;;;34.50;;
6424;SDS011;12193;42.642;23.384;2023-11-21T16:09:27;73.90;;;35.90;;
6424;SDS011;12193;42.642;23.384;2023-11-21T16:11:58;73.93;;;35.97;;
6424;SDS011;12193;42.642;23.384;2023-11-21T16:14:28;59.37;;;32.23;;
6424;SDS011;12193;42.642;23.384;2023-11-21T16:17:01;70.30;;;34.33;;
6424;SDS011;12193;42.642;23.384;2023-11-21T16:19:32;62.60;;;30.67;;
6424;SDS011;12193;42.642;23.384;2023-11-21T16:22:05;66.07;;;33.00;;
6424;SDS011;12193;42.642;23.384;2023-11-21T16:24:34;63.37;;;31.87;;
6424;SDS011;12193;42.642;23.384;2023-11-21T16:27:04;64.33;;;29.07;;
6424;SDS011;12193;42.642;23.384;2023-11-21T16:29:35;56.90;;;29.10;;
6424;SDS011;12193;42.642;23.384;2023-11-21T16:32:05;54.40;;;29.03;;
6424;SDS011;12193;42.642;23.384;2023-11-21T16:34:36;56.77;;;30.03;;
6424;SDS011;12193;42.642;23.384;2023-11-21T16:37:09;56.13;;;27.20;;
6424;SDS011;12193;42.642;23.384;2023-11-21T16:39:38;47.20;;;26.50;;
6424;SDS011;12193;42.642;23.384;2023-11-21T16:42:07;56.07;;;28.27;;
6424;SDS011;12193;42.642;23.384;2023-11-21T16:44:36;61.73;;;31.77;;
6424;SDS011;12193;42.642;23.384;2023-11-21T16:47:06;43.93;;;22.63;;
6424;SDS011;12193;42.642;23.384;2023-11-21T16:49:35;40.40;;;22.17;;
6424;SDS011;12193;42.642;23.384;2023-11-21T16:52:09;50.10;;;26.63;;
6424;SDS011;12193;42.642;23.384;2023-11-21T16:54:38;55.97;;;27.33;;
6424;SDS011;12193;42.642;23.384;2023-11-21T16:57:07;44.07;;;24.33;;
6424;SDS011;12193;42.642;23.384;2023-11-21T16:59:37;53.13;;;26.77;;
6424;SDS011;12193;42.642;23.384;2023-11-21T17:02:07;58.83;;;28.30;;
6424;SDS011;12193;42.642;23.384;2023-11-21T17:04:37;58.27;;;30.87;;
6424;SDS011;12193;42.642;23.384;2023-11-21T17:07:11;68.73;;;32.57;;
6424;SDS011;12193;42.642;23.384;2023-11-21T17:09:42;61.93;;;31.70;;
6424;SDS011;12193;42.642;23.384;2023-11-21T17:12:11;62.63;;;31.20;;
6424;SDS011;12193;42.642;23.384;2023-11-21T17:14:41;61.67;;;31.30;;
6424;SDS011;12193;42.642;23.384;2023-11-21T17:17:12;59.60;;;28.93;;
6424;SDS011;12193;42.642;23.384;2023-11-21T17:19:41;62.93;;;29.27;;
6424;SDS011;12193;42.642;23.384;2023-11-21T17:22:13;54.40;;;26.20;;
6424;SDS011;12193;42.642;23.384;2023-11-21T17:24:42;55.80;;;28.33;;
6424;SDS011;12193;42.642;23.384;2023-11-21T17:27:11;51.87;;;26.23;;
6424;SDS011;12193;42.642;23.384;2023-11-21T17:29:40;61.83;;;27.77;;
6424;SDS011;12193;42.642;23.384;2023-11-21T17:32:09;56.50;;;26.10;;
6424;SDS011;12193;42.642;23.384;2023-11-21T17:34:39;54.57;;;27.03;;
6424;SDS011;12193;42.642;23.384;2023-11-21T17:37:08;51.37;;;26.43;;
6424;SDS011;12193;42.642;23.384;2023-11-21T17:39:41;49.73;;;25.97;;